Time;durP1;ratioP1;P1;durP2;ratioP2;P2;SDS_P1;SDS_P2;PMS_P1;PMS_P2;Temp;Humidity;BMP_temperature;BMP_pressure;BME280_temperature;BME280_humidity;BME280_pressure;Samples;Min_cycle;Max_cycle;Signal;HPM_P1;HPM_P2
2023/09/11 00:01:19;;;;;;;28.48;25.58;;;;;;;;;;5017293;28;20025;-57
2023/09/11 00:03:47;;;;;;;29.92;27.05;;;;;;;;;;5034964;28;20017;-58
2023/09/11 00:06:13;;;;;;;29.55;26.55;;;;;;;;;;5034809;28;20441;-58
2023/09/11 00:08:39;;;;;;;30.33;27.25;;;;;;;;;;5034884;28;20040;-58
2023/09/11 00:11:05;;;;;;;29.80;26.75;;;;;;;;;;5034769;28;20120;-57
2023/09/11 00:13:31;;;;;;;31.00;28.00;;;;;;;;;;5034817;28;20035;-58
2023/09/11 00:15:58;;;;;;;32.20;28.77;;;;;;;;;;5034723;28;20095;-58
2023/09/11 00:18:24;;;;;;;33.40;30.05;;;;;;;;;;5034666;28;20110;-58
2023/09/11 00:20:50;;;;;;;31.13;27.88;;;;;;;;;;5034336;28;20052;-58
2023/09/11 00:23:16;;;;;;;33.72;30.38;;;;;;;;;;5034645;28;20018;-56
2023/09/11 00:25:42;;;;;;;32.47;29.02;;;;;;;;;;5034382;28;20041;-56
2023/09/11 00:28:08;;;;;;;32.88;29.70;;;;;;;;;;5034483;28;20025;-57
2023/09/11 00:30:37;;;;;;;33.83;30.33;;;;;;;;;;5034216;28;20467;-57
2023/09/11 00:33:04;;;;;;;35.65;32.22;;;;;;;;;;5034382;28;20336;-57
2023/09/11 00:35:30;;;;;;;34.90;31.35;;;;;;;;;;5034319;28;20040;-57
2023/09/11 00:37:56;;;;;;;35.53;31.77;;;;;;;;;;5034245;28;20021;-56
2023/09/11 00:40:22;;;;;;;33.22;29.83;;;;;;;;;;5034227;28;20036;-57
2023/09/11 00:42:48;;;;;;;33.20;30.10;;;;;;;;;;5034154;28;20030;-55
2023/09/11 00:45:14;;;;;;;33.22;29.15;;;;;;;;;;5034305;28;20022;-57
2023/09/11 00:47:41;;;;;;;33.42;30.10;;;;;;;;;;5016115;28;20442;-57
2023/09/11 00:50:07;;;;;;;30.73;27.60;;;;;;;;;;5033935;28;20045;-58
2023/09/11 00:52:33;;;;;;;31.30;28.30;;;;;;;;;;5033987;28;20036;-57
2023/09/11 00:55:00;;;;;;;31.60;28.25;;;;;;;;;;5033824;28;20060;-58
2023/09/11 00:57:26;;;;;;;33.80;28.25;;;;;;;;;;5033982;28;20026;-57
2023/09/11 00:59:52;;;;;;;31.27;28.17;;;;;;;;;;5033799;28;20026;-58
2023/09/11 01:02:19;;;;;;;30.70;27.80;;;;;;;;;;5033775;28;20026;-57
2023/09/11 01:04:45;;;;;;;32.15;29.00;;;;;;;;;;5033301;28;20478;-57
2023/09/11 01:07:16;;;;;;;31.50;28.67;;;;;;;;;;5033753;28;20067;-57
2023/09/11 01:09:42;;;;;;;30.23;27.25;;;;;;;;;;5032906;28;20045;-57
2023/09/11 01:12:09;;;;;;;32.08;28.85;;;;;;;;;;5032686;28;20037;-58
2023/09/11 01:14:37;;;;;;;31.08;27.77;;;;;;;;;;5015033;28;20467;-56
2023/09/11 01:17:07;;;;;;;31.50;28.65;;;;;;;;;;5032787;28;20017;-58
2023/09/11 01:19:48;;;;;;;33.28;29.88;;;;;;;;;;5031822;28;20112;-58
2023/09/11 01:22:20;;;;;;;32.92;29.60;;;;;;;;;;5031109;28;20053;-57
2023/09/11 01:25:05;;;;;;;32.00;28.70;;;;;;;;;;5031348;28;20104;-57
2023/09/11 01:27:37;;;;;;;30.55;27.40;;;;;;;;;;5018533;28;20431;-58
2023/09/11 01:30:04;;;;;;;33.53;30.17;;;;;;;;;;5032215;28;20156;-57
2023/09/11 01:32:30;;;;;;;31.88;28.50;;;;;;;;;;5032165;28;20037;-58
2023/09/11 01:34:56;;;;;;;32.42;29.23;;;;;;;;;;5032130;28;20067;-57
2023/09/11 01:37:22;;;;;;;32.78;29.35;;;;;;;;;;5032084;28;20402;-58
2023/09/11 01:39:48;;;;;;;32.30;28.85;;;;;;;;;;5031341;28;20022;-56
2023/09/11 01:42:18;;;;;;;33.15;29.85;;;;;;;;;;5030819;28;20367;-58
2023/09/11 01:44:44;;;;;;;31.30;28.10;;;;;;;;;;5031150;28;20047;-58
2023/09/11 01:47:12;;;;;;;33.45;30.05;;;;;;;;;;5031457;28;20043;-57
2023/09/11 01:49:39;;;;;;;33.58;30.20;;;;;;;;;;5030654;28;20040;-58
2023/09/11 01:52:07;;;;;;;30.83;27.83;;;;;;;;;;5030562;28;20045;-59
2023/09/11 01:54:33;;;;;;;32.72;29.33;;;;;;;;;;5013660;28;20033;-58
2023/09/11 01:56:59;;;;;;;31.92;28.73;;;;;;;;;;5031263;28;20317;-57
2023/09/11 01:59:25;;;;;;;31.65;28.45;;;;;;;;;;5030649;28;20077;-58
2023/09/11 02:01:51;;;;;;;31.48;28.27;;;;;;;;;;5031133;28;20540;-58
2023/09/11 02:04:17;;;;;;;29.73;26.80;;;;;;;;;;5030910;28;20037;-60
2023/09/11 02:06:43;;;;;;;32.28;28.98;;;;;;;;;;5031146;28;20045;-59
2023/09/11 02:09:09;;;;;;;33.60;29.92;;;;;;;;;;5031414;28;20048;-58
2023/09/11 02:11:35;;;;;;;30.80;27.92;;;;;;;;;;5031015;28;20033;-58
2023/09/11 02:14:01;;;;;;;30.25;27.45;;;;;;;;;;5031234;28;20459;-58
2023/09/11 02:16:27;;;;;;;30.33;27.35;;;;;;;;;;5030433;28;20029;-58
2023/09/11 02:18:53;;;;;;;32.63;28.85;;;;;;;;;;5032180;28;20053;-59
2023/09/11 02:21:19;;;;;;;32.40;29.08;;;;;;;;;;5032062;28;20081;-58
2023/09/11 02:23:45;;;;;;;30.70;27.65;;;;;;;;;;5032317;28;20025;-58
2023/09/11 02:26:11;;;;;;;29.88;26.95;;;;;;;;;;5032324;28;20422;-58
2023/09/11 02:28:37;;;;;;;31.70;28.27;;;;;;;;;;5014330;28;20022;-59
2023/09/11 02:31:04;;;;;;;31.10;28.02;;;;;;;;;;5032036;28;20112;-58
2023/09/11 02:33:30;;;;;;;29.83;26.80;;;;;;;;;;5032091;28;20074;-58
2023/09/11 02:35:56;;;;;;;31.55;28.08;;;;;;;;;;5031786;28;20120;-59
2023/09/11 02:38:22;;;;;;;31.02;27.73;;;;;;;;;;5031752;28;20022;-58
2023/09/11 02:40:49;;;;;;;31.85;28.58;;;;;;;;;;5012251;28;20665;-59
2023/09/11 02:43:15;;;;;;;28.63;25.83;;;;;;;;;;5028817;28;20076;-58
2023/09/11 02:45:44;;;;;;;29.80;26.83;;;;;;;;;;5029661;28;20029;-58
2023/09/11 02:48:11;;;;;;;29.35;26.20;;;;;;;;;;5028770;28;20487;-58
2023/09/11 02:50:38;;;;;;;29.05;26.02;;;;;;;;;;5027909;28;20033;-63
2023/09/11 02:53:08;;;;;;;28.92;26.02;;;;;;;;;;5031895;28;20036;-58
2023/09/11 02:55:36;;;;;;;32.13;29.08;;;;;;;;;;5031939;28;20022;-58
2023/09/11 02:58:02;;;;;;;28.67;25.95;;;;;;;;;;5032059;28;20111;-58
2023/09/11 03:00:29;;;;;;;27.88;25.25;;;;;;;;;;5031728;28;20021;-59
2023/09/11 03:02:56;;;;;;;28.20;25.50;;;;;;;;;;5031844;28;20141;-58
2023/09/11 03:05:22;;;;;;;29.90;27.00;;;;;;;;;;5031803;28;20018;-58
2023/09/11 03:07:48;;;;;;;31.58;28.45;;;;;;;;;;5031526;28;20025;-58
2023/09/11 03:10:14;;;;;;;32.65;29.50;;;;;;;;;;5031525;28;20041;-58
2023/09/11 03:12:41;;;;;;;32.55;29.40;;;;;;;;;;5013727;28;20030;-58
2023/09/11 03:15:07;;;;;;;33.22;29.67;;;;;;;;;;5031553;28;20463;-58
2023/09/11 03:17:33;;;;;;;32.70;29.55;;;;;;;;;;5031689;28;20033;-58
2023/09/11 03:19:59;;;;;;;34.60;31.08;;;;;;;;;;5031130;28;20562;-59
2023/09/11 03:22:25;;;;;;;33.72;30.50;;;;;;;;;;5031441;28;20037;-58
2023/09/11 03:24:51;;;;;;;34.58;31.00;;;;;;;;;;5031533;28;20423;-58
2023/09/11 03:27:17;;;;;;;33.67;30.40;;;;;;;;;;5033343;28;20108;-58
2023/09/11 03:29:43;;;;;;;34.97;31.42;;;;;;;;;;5035560;28;20483;-56
2023/09/11 03:32:09;;;;;;;33.88;30.40;;;;;;;;;;5035704;28;20069;-58
2023/09/11 03:34:35;;;;;;;32.83;29.70;;;;;;;;;;5035461;28;20029;-58
2023/09/11 03:37:01;;;;;;;33.22;30.00;;;;;;;;;;5035539;28;20025;-57
2023/09/11 03:39:27;;;;;;;34.38;31.20;;;;;;;;;;5035387;28;20123;-58
2023/09/11 03:41:53;;;;;;;34.08;30.80;;;;;;;;;;5035113;28;20037;-57
2023/09/11 03:44:19;;;;;;;34.13;30.60;;;;;;;;;;5035243;28;20084;-57
2023/09/11 03:46:45;;;;;;;34.22;30.58;;;;;;;;;;5035090;28;20020;-57
2023/09/11 03:49:11;;;;;;;34.95;31.55;;;;;;;;;;5035399;28;20025;-58
2023/09/11 03:51:37;;;;;;;34.08;30.70;;;;;;;;;;5035319;28;20101;-57
2023/09/11 03:54:07;;;;;;;32.97;29.77;;;;;;;;;;5035185;28;20029;-58
2023/09/11 03:56:33;;;;;;;33.05;29.52;;;;;;;;;;5035106;28;20475;-58
2023/09/11 03:58:59;;;;;;;33.55;30.33;;;;;;;;;;5034809;28;20017;-57
2023/09/11 04:01:25;;;;;;;32.83;29.45;;;;;;;;;;5034969;28;20071;-57
2023/09/11 04:03:51;;;;;;;32.08;28.75;;;;;;;;;;5034856;28;20025;-57
2023/09/11 04:06:19;;;;;;;33.08;29.77;;;;;;;;;;5008288;28;20021;-59
2023/09/11 04:08:45;;;;;;;31.40;28.23;;;;;;;;;;5034866;28;20108;-57
2023/09/11 04:11:11;;;;;;;32.42;29.33;;;;;;;;;;5034703;28;20108;-58
2023/09/11 04:13:37;;;;;;;31.80;28.65;;;;;;;;;;5034844;28;20117;-58
2023/09/11 04:16:04;;;;;;;32.95;29.55;;;;;;;;;;5034593;28;20067;-58
2023/09/11 04:18:30;;;;;;;30.45;27.58;;;;;;;;;;5034656;28;20060;-58
2023/09/11 04:21:03;;;;;;;32.25;29.00;;;;;;;;;;5034418;28;20069;-58
2023/09/11 04:23:29;;;;;;;31.20;28.30;;;;;;;;;;5034661;28;20014;-58
2023/09/11 04:25:56;;;;;;;31.73;28.63;;;;;;;;;;5034742;28;20056;-58
2023/09/11 04:28:22;;;;;;;32.30;28.90;;;;;;;;;;5034546;28;20129;-58
2023/09/11 04:30:48;;;;;;;34.53;31.02;;;;;;;;;;5034288;28;20467;-59
2023/09/11 04:33:14;;;;;;;32.40;29.15;;;;;;;;;;5034487;28;20375;-56
2023/09/11 04:35:40;;;;;;;32.30;29.20;;;;;;;;;;5034408;28;20032;-57
2023/09/11 04:38:06;;;;;;;32.00;28.75;;;;;;;;;;5033971;28;20032;-57
2023/09/11 04:40:32;;;;;;;32.47;29.23;;;;;;;;;;5034101;28;20017;-58
2023/09/11 04:42:58;;;;;;;31.17;28.08;;;;;;;;;;5034402;28;20112;-58
2023/09/11 04:45:24;;;;;;;33.58;30.35;;;;;;;;;;5034130;28;20391;-58
2023/09/11 04:47:50;;;;;;;34.17;30.85;;;;;;;;;;5016213;28;20040;-58
2023/09/11 04:50:16;;;;;;;35.30;31.77;;;;;;;;;;5034088;28;20107;-58
2023/09/11 04:52:43;;;;;;;34.08;30.80;;;;;;;;;;5034182;28;20032;-58
2023/09/11 04:55:09;;;;;;;34.05;30.40;;;;;;;;;;5033983;28;20029;-58
2023/09/11 04:57:36;;;;;;;35.15;31.55;;;;;;;;;;5033942;28;20029;-58
2023/09/11 05:00:08;;;;;;;34.95;31.23;;;;;;;;;;5033926;28;20025;-58
2023/09/11 05:02:34;;;;;;;34.17;30.95;;;;;;;;;;5020348;28;20048;-58
2023/09/11 05:05:00;;;;;;;34.75;31.27;;;;;;;;;;5033881;28;20479;-58
2023/09/11 05:07:27;;;;;;;34.58;30.98;;;;;;;;;;5016055;28;20095;-58
2023/09/11 05:09:53;;;;;;;31.63;28.35;;;;;;;;;;5033883;28;20018;-58
2023/09/11 05:12:19;;;;;;;35.13;31.58;;;;;;;;;;5033418;28;20041;-58
2023/09/11 05:14:45;;;;;;;33.58;30.08;;;;;;;;;;5033941;28;20028;-58
2023/09/11 05:17:11;;;;;;;34.63;31.35;;;;;;;;;;5033541;28;20037;-56
2023/09/11 05:19:37;;;;;;;36.03;31.65;;;;;;;;;;5033534;28;20414;-58
2023/09/11 05:22:03;;;;;;;34.25;30.70;;;;;;;;;;5033286;28;20077;-58
2023/09/11 05:24:29;;;;;;;36.00;32.28;;;;;;;;;;5033472;28;20029;-58
2023/09/11 05:26:55;;;;;;;34.13;30.70;;;;;;;;;;5033444;28;20356;-58
2023/09/11 05:29:21;;;;;;;32.85;29.60;;;;;;;;;;5015411;28;20057;-58
2023/09/11 05:31:47;;;;;;;33.05;29.35;;;;;;;;;;5033168;28;20363;-58
2023/09/11 05:34:13;;;;;;;34.85;31.10;;;;;;;;;;5033253;28;20017;-56
2023/09/11 05:36:39;;;;;;;32.03;28.83;;;;;;;;;;5033327;28;20379;-58
2023/09/11 05:39:05;;;;;;;33.30;29.70;;;;;;;;;;5033118;28;20021;-58
2023/09/11 05:41:32;;;;;;;34.17;30.60;;;;;;;;;;5032849;28;20025;-58
2023/09/11 05:43:58;;;;;;;34.00;30.67;;;;;;;;;;5033084;28;20018;-58
2023/09/11 05:46:24;;;;;;;34.17;30.75;;;;;;;;;;5032823;28;20063;-58
2023/09/11 05:48:50;;;;;;;33.28;30.17;;;;;;;;;;5033076;28;20060;-58
2023/09/11 05:51:16;;;;;;;33.47;30.10;;;;;;;;;;5031810;28;20087;-57
2023/09/11 05:53:42;;;;;;;34.25;30.65;;;;;;;;;;5014930;28;20026;-58
2023/09/11 05:56:08;;;;;;;33.25;29.73;;;;;;;;;;5032719;28;20152;-58
2023/09/11 05:58:34;;;;;;;35.35;31.67;;;;;;;;;;5032713;28;20109;-58
2023/09/11 06:01:00;;;;;;;34.28;30.98;;;;;;;;;;5032719;28;20057;-57
2023/09/11 06:03:26;;;;;;;33.25;30.05;;;;;;;;;;5032648;28;20037;-58
2023/09/11 06:05:52;;;;;;;34.22;30.98;;;;;;;;;;5013092;28;20628;-57
2023/09/11 06:08:18;;;;;;;33.08;29.88;;;;;;;;;;5010148;28;20517;-57
2023/09/11 06:10:45;;;;;;;33.53;30.13;;;;;;;;;;5029147;28;20041;-58
2023/09/11 06:13:11;;;;;;;33.30;30.10;;;;;;;;;;5029161;28;20037;-57
2023/09/11 06:15:37;;;;;;;33.88;29.70;;;;;;;;;;5029236;28;20075;-58
2023/09/11 06:18:04;;;;;;;34.65;31.30;;;;;;;;;;5032353;28;20017;-57
2023/09/11 06:20:31;;;;;;;35.22;31.67;;;;;;;;;;5032149;28;20038;-58
2023/09/11 06:22:57;;;;;;;33.72;30.30;;;;;;;;;;5032282;28;20022;-58
2023/09/11 06:25:23;;;;;;;34.08;30.88;;;;;;;;;;5032311;28;20036;-58
2023/09/11 06:27:49;;;;;;;35.58;32.10;;;;;;;;;;5032259;28;20031;-58
2023/09/11 06:30:15;;;;;;;34.10;30.70;;;;;;;;;;5032133;28;20057;-58
2023/09/11 06:32:41;;;;;;;34.05;30.30;;;;;;;;;;5014329;28;20037;-59
2023/09/11 06:35:08;;;;;;;34.75;31.27;;;;;;;;;;5032294;28;20048;-58
2023/09/11 06:37:34;;;;;;;35.78;31.88;;;;;;;;;;5031999;28;20029;-58
2023/09/11 06:40:00;;;;;;;36.10;32.50;;;;;;;;;;5031908;28;20191;-57
2023/09/11 06:42:26;;;;;;;35.58;32.25;;;;;;;;;;5031843;28;20029;-58
2023/09/11 06:44:52;;;;;;;37.53;33.70;;;;;;;;;;5032032;28;20108;-57
2023/09/11 06:47:19;;;;;;;35.42;31.73;;;;;;;;;;5031845;28;20030;-58
2023/09/11 06:49:45;;;;;;;34.97;31.30;;;;;;;;;;5031925;28;20112;-58
2023/09/11 06:52:11;;;;;;;36.95;33.05;;;;;;;;;;5031802;28;20037;-57
2023/09/11 06:54:37;;;;;;;40.55;34.88;;;;;;;;;;5031947;28;20032;-56
2023/09/11 06:57:03;;;;;;;37.00;33.58;;;;;;;;;;5031913;28;20021;-58
2023/09/11 06:59:29;;;;;;;36.53;32.60;;;;;;;;;;5031707;28;20026;-58
2023/09/11 07:01:55;;;;;;;35.55;32.15;;;;;;;;;;5031309;28;20540;-58
2023/09/11 07:04:21;;;;;;;38.75;34.58;;;;;;;;;;5013741;28;20068;-58
2023/09/11 07:06:48;;;;;;;37.80;33.13;;;;;;;;;;5031667;28;20029;-58
2023/09/11 07:09:14;;;;;;;36.22;32.40;;;;;;;;;;5031662;28;20055;-58
2023/09/11 07:11:40;;;;;;;38.72;34.80;;;;;;;;;;5031327;28;20455;-56
2023/09/11 07:14:08;;;;;;;36.70;32.83;;;;;;;;;;5031666;28;20022;-58
2023/09/11 07:16:34;;;;;;;36.92;33.17;;;;;;;;;;5031434;28;20498;-58
2023/09/11 07:19:00;;;;;;;39.92;35.72;;;;;;;;;;5030535;28;20036;-57
2023/09/11 07:21:26;;;;;;;37.90;33.90;;;;;;;;;;5030494;28;20057;-57
2023/09/11 07:23:54;;;;;;;36.92;33.25;;;;;;;;;;5032026;28;20115;-58
2023/09/11 07:26:20;;;;;;;39.10;35.03;;;;;;;;;;5026837;28;20359;-58
2023/09/11 07:28:53;;;;;;;37.30;33.60;;;;;;;;;;5030829;28;20079;-57
2023/09/11 07:31:19;;;;;;;41.47;35.67;;;;;;;;;;5031422;28;20501;-58
2023/09/11 07:33:45;;;;;;;40.33;36.20;;;;;;;;;;5031327;28;20021;-59
2023/09/11 07:36:12;;;;;;;39.53;35.15;;;;;;;;;;5031748;28;20025;-57
2023/09/11 07:38:44;;;;;;;39.13;34.85;;;;;;;;;;5031422;28;20459;-58
2023/09/11 07:41:10;;;;;;;42.55;38.20;;;;;;;;;;5031053;28;20026;-58
2023/09/11 07:43:36;;;;;;;39.42;35.13;;;;;;;;;;5031341;28;20017;-57
2023/09/11 07:46:02;;;;;;;41.05;36.17;;;;;;;;;;5031485;28;20033;-58
2023/09/11 07:48:28;;;;;;;41.17;36.00;;;;;;;;;;5031265;28;20021;-58
2023/09/11 07:50:57;;;;;;;41.60;37.28;;;;;;;;;;5031122;28;20122;-57
2023/09/11 07:53:23;;;;;;;44.15;39.13;;;;;;;;;;5031206;28;20404;-58
2023/09/11 07:55:49;;;;;;;44.25;38.38;;;;;;;;;;5030027;28;20029;-58
2023/09/11 07:58:17;;;;;;;48.20;43.10;;;;;;;;;;5026599;28;20032;-58
2023/09/11 08:00:43;;;;;;;45.40;39.03;;;;;;;;;;5029426;28;20076;-58
2023/09/11 08:03:09;;;;;;;50.22;44.78;;;;;;;;;;5031108;28;20024;-57
2023/09/11 08:05:35;;;;;;;49.83;44.28;;;;;;;;;;5031178;28;20022;-58
2023/09/11 08:08:02;;;;;;;48.10;42.88;;;;;;;;;;5030909;28;20034;-58
2023/09/11 08:10:29;;;;;;;53.78;48.13;;;;;;;;;;5031016;28;20022;-58
2023/09/11 08:12:55;;;;;;;51.70;45.75;;;;;;;;;;5031043;28;20079;-58
2023/09/11 08:15:21;;;;;;;48.97;43.88;;;;;;;;;;5034076;28;20056;-58
2023/09/11 08:17:47;;;;;;;50.42;45.00;;;;;;;;;;5034863;28;20033;-58
2023/09/11 08:20:14;;;;;;;52.22;45.40;;;;;;;;;;5013295;28;20115;-58
2023/09/11 08:22:41;;;;;;;49.50;44.17;;;;;;;;;;5034611;28;20031;-58
2023/09/11 08:25:09;;;;;;;50.90;43.47;;;;;;;;;;5034303;28;20036;-58
2023/09/11 08:27:35;;;;;;;49.97;44.35;;;;;;;;;;5034485;28;20096;-58
2023/09/11 08:30:01;;;;;;;46.72;42.08;;;;;;;;;;5034285;28;20033;-58
2023/09/11 08:32:27;;;;;;;48.47;43.22;;;;;;;;;;5034559;28;20033;-58
2023/09/11 08:34:53;;;;;;;48.92;43.75;;;;;;;;;;5034370;28;20097;-58
2023/09/11 08:37:19;;;;;;;50.20;44.92;;;;;;;;;;5034576;28;20061;-58
2023/09/11 08:39:45;;;;;;;50.33;43.20;;;;;;;;;;5034174;28;20503;-58
2023/09/11 08:42:12;;;;;;;46.05;41.28;;;;;;;;;;5016149;28;20022;-58
2023/09/11 08:44:38;;;;;;;46.85;42.08;;;;;;;;;;5034171;28;20168;-58
2023/09/11 08:47:05;;;;;;;45.15;40.58;;;;;;;;;;5034032;28;20045;-58
2023/09/11 08:49:33;;;;;;;50.33;42.53;;;;;;;;;;5034005;28;20036;-58
2023/09/11 08:52:02;;;;;;;50.78;44.28;;;;;;;;;;5033890;28;20045;-58
2023/09/11 08:54:32;;;;;;;51.08;45.53;;;;;;;;;;5034264;28;20026;-58
2023/09/11 08:56:58;;;;;;;47.88;42.88;;;;;;;;;;5033929;28;20021;-58
2023/09/11 08:59:24;;;;;;;45.85;40.50;;;;;;;;;;5033852;28;20032;-58
2023/09/11 09:01:50;;;;;;;46.08;41.22;;;;;;;;;;5033833;28;20037;-57
2023/09/11 09:04:17;;;;;;;50.58;41.85;;;;;;;;;;5033684;28;20140;-57
2023/09/11 09:06:46;;;;;;;47.42;41.63;;;;;;;;;;5030856;28;20108;-57
2023/09/11 09:09:12;;;;;;;49.20;41.97;;;;;;;;;;5027063;28;20022;-58
2023/09/11 09:11:39;;;;;;;47.60;40.95;;;;;;;;;;5029185;28;20033;-58
2023/09/11 09:14:09;;;;;;;44.42;39.72;;;;;;;;;;5030753;28;20074;-57
2023/09/11 09:16:35;;;;;;;46.40;41.47;;;;;;;;;;5030015;28;20032;-58
2023/09/11 09:19:01;;;;;;;47.03;42.00;;;;;;;;;;5029358;28;20033;-58
2023/09/11 09:21:28;;;;;;;43.78;38.92;;;;;;;;;;5030407;28;20073;-56
2023/09/11 09:23:54;;;;;;;43.78;37.65;;;;;;;;;;5011862;28;20021;-57
2023/09/11 09:26:21;;;;;;;46.10;41.10;;;;;;;;;;5028683;28;20144;-57
2023/09/11 09:28:48;;;;;;;44.85;38.72;;;;;;;;;;5030346;28;20116;-57
2023/09/11 09:31:24;;;;;;;44.95;40.20;;;;;;;;;;5029056;28;22133;-55
2023/09/11 09:33:53;;;;;;;46.47;39.55;;;;;;;;;;5026157;28;20040;-57
2023/09/11 09:36:19;;;;;;;40.90;36.80;;;;;;;;;;5028000;28;20045;-57
2023/09/11 09:38:45;;;;;;;42.17;37.83;;;;;;;;;;5027408;28;20030;-57
2023/09/11 09:41:11;;;;;;;45.30;40.65;;;;;;;;;;5029021;28;20029;-57
2023/09/11 09:43:37;;;;;;;41.92;36.80;;;;;;;;;;5031068;28;20037;-57
2023/09/11 09:46:24;;;;;;;40.58;36.20;;;;;;;;;;5032884;28;20052;-57
2023/09/11 09:48:50;;;;;;;41.05;36.90;;;;;;;;;;5032954;28;20045;-57
2023/09/11 09:51:16;;;;;;;40.42;36.10;;;;;;;;;;5032683;28;20116;-57
2023/09/11 09:53:44;;;;;;;40.95;36.47;;;;;;;;;;5032742;28;20021;-57
2023/09/11 09:56:11;;;;;;;41.08;36.72;;;;;;;;;;5032684;28;20120;-56
2023/09/11 09:58:38;;;;;;;41.67;37.17;;;;;;;;;;5014849;28;20139;-55
2023/09/11 10:01:04;;;;;;;36.45;32.78;;;;;;;;;;5032735;28;20049;-56
2023/09/11 10:03:50;;;;;;;34.85;31.25;;;;;;;;;;5032558;28;20422;-56
2023/09/11 10:06:20;;;;;;;33.63;30.23;;;;;;;;;;5020362;28;20446;-57
2023/09/11 10:08:46;;;;;;;35.03;31.23;;;;;;;;;;5032472;28;20055;-57
2023/09/11 10:11:28;;;;;;;32.78;29.27;;;;;;;;;;5032487;28;20378;-57
2023/09/11 10:13:56;;;;;;;31.70;28.50;;;;;;;;;;5032449;28;20143;-57
2023/09/11 10:16:23;;;;;;;31.42;28.13;;;;;;;;;;5018902;28;20032;-57
2023/09/11 10:18:49;;;;;;;28.25;25.35;;;;;;;;;;5032636;28;20025;-56
2023/09/11 10:21:18;;;;;;;23.50;21.08;;;;;;;;;;5031999;28;20053;-56
2023/09/11 10:23:44;;;;;;;23.70;21.23;;;;;;;;;;5032189;28;20048;-57
2023/09/11 10:26:13;;;;;;;21.70;18.50;;;;;;;;;;5032066;28;20022;-57
2023/09/11 10:28:41;;;;;;;22.45;20.10;;;;;;;;;;5032490;28;20419;-59
2023/09/11 10:31:26;;;;;;;23.17;20.83;;;;;;;;;;5031968;28;20121;-56
2023/09/11 10:33:56;;;;;;;21.92;19.70;;;;;;;;;;5032160;28;20028;-58
2023/09/11 10:36:23;;;;;;;25.67;22.42;;;;;;;;;;5031402;28;20418;-58
2023/09/11 10:42:05;;;;;;;16.23;14.52;;;;;;;;;;5018882;28;20036;-58
2023/09/11 10:44:35;;;;;;;15.52;13.95;;;;;;;;;;5030889;28;20040;-56
2023/09/11 10:47:02;;;;;;;18.60;16.77;;;;;;;;;;5031924;28;20108;-59
2023/09/11 10:49:33;;;;;;;18.55;16.60;;;;;;;;;;5031863;28;20144;-59
2023/09/11 10:51:59;;;;;;;22.00;19.90;;;;;;;;;;5031788;28;20391;-58
2023/09/11 10:54:25;;;;;;;20.65;16.63;;;;;;;;;;5031853;28;20100;-58
2023/09/11 10:56:56;;;;;;;17.98;16.25;;;;;;;;;;5031881;28;20029;-58
2023/09/11 10:59:23;;;;;;;21.08;18.88;;;;;;;;;;5032021;28;20060;-58
2023/09/11 11:01:50;;;;;;;19.60;17.55;;;;;;;;;;5031686;28;20022;-57
2023/09/11 11:04:17;;;;;;;23.55;20.92;;;;;;;;;;5031935;28;20049;-58
2023/09/11 11:06:44;;;;;;;21.75;18.75;;;;;;;;;;5031874;28;20467;-57
2023/09/11 11:09:33;;;;;;;17.80;16.17;;;;;;;;;;5031450;28;20481;-58
2023/09/11 11:12:00;;;;;;;18.55;16.80;;;;;;;;;;5021226;28;20053;-58
2023/09/11 11:14:26;;;;;;;18.45;16.70;;;;;;;;;;5031817;28;20128;-58
2023/09/11 11:16:59;;;;;;;16.45;14.10;;;;;;;;;;5031541;28;20030;-58
2023/09/11 11:19:32;;;;;;;17.75;15.43;;;;;;;;;;5018141;28;20013;-58
2023/09/11 11:21:59;;;;;;;20.45;17.75;;;;;;;;;;5031343;28;20046;-58
2023/09/11 11:24:25;;;;;;;18.85;16.40;;;;;;;;;;5031364;28;20030;-57
2023/09/11 11:26:56;;;;;;;18.33;16.63;;;;;;;;;;5031509;28;20025;-58
2023/09/11 11:29:22;;;;;;;17.52;15.80;;;;;;;;;;5031280;28;20021;-57
2023/09/11 11:31:51;;;;;;;22.08;18.00;;;;;;;;;;5031348;28;20034;-57
2023/09/11 11:34:19;;;;;;;14.82;13.43;;;;;;;;;;5031326;28;20026;-57
2023/09/11 11:36:45;;;;;;;15.20;13.60;;;;;;;;;;5031430;28;20470;-57
2023/09/11 11:39:11;;;;;;;15.85;14.25;;;;;;;;;;5031256;28;20022;-57
2023/09/11 11:41:37;;;;;;;16.30;13.95;;;;;;;;;;5031194;28;20037;-58
2023/09/11 11:44:04;;;;;;;14.30;12.90;;;;;;;;;;5029794;28;20426;-57
2023/09/11 11:46:30;;;;;;;13.90;12.48;;;;;;;;;;5030871;28;20044;-57
2023/09/11 11:48:56;;;;;;;16.20;14.70;;;;;;;;;;5034067;28;20026;-58
2023/09/11 11:51:32;;;;;;;14.02;12.55;;;;;;;;;;5035063;28;20041;-57
2023/09/11 11:53:59;;;;;;;15.00;11.88;;;;;;;;;;5022156;28;20022;-57
2023/09/11 11:56:26;;;;;;;17.10;12.55;;;;;;;;;;5035086;28;20112;-58
2023/09/11 11:58:55;;;;;;;13.43;11.73;;;;;;;;;;5035044;28;20030;-57
2023/09/11 12:01:21;;;;;;;12.60;11.45;;;;;;;;;;5035050;28;20116;-58
2023/09/11 12:03:48;;;;;;;15.52;13.35;;;;;;;;;;5035101;28;20025;-58
2023/09/11 12:06:15;;;;;;;16.20;14.63;;;;;;;;;;5035032;28;20029;-57
2023/09/11 12:08:41;;;;;;;17.92;14.60;;;;;;;;;;5034842;28;20049;-58
2023/09/11 12:11:08;;;;;;;15.25;13.70;;;;;;;;;;5034873;28;20454;-58
2023/09/11 12:13:34;;;;;;;13.77;12.38;;;;;;;;;;5034553;28;20076;-58
2023/09/11 12:16:00;;;;;;;13.63;12.32;;;;;;;;;;5034896;28;20021;-58
2023/09/11 12:18:35;;;;;;;14.30;12.93;;;;;;;;;;5034793;28;20033;-58
2023/09/11 12:21:02;;;;;;;15.38;13.75;;;;;;;;;;5034687;28;20057;-58
2023/09/11 12:23:28;;;;;;;15.05;13.80;;;;;;;;;;5016663;28;20443;-58
2023/09/11 12:25:54;;;;;;;15.60;14.15;;;;;;;;;;5034481;28;20029;-58
2023/09/11 12:28:24;;;;;;;14.00;12.75;;;;;;;;;;5034483;28;20040;-58
2023/09/11 12:30:51;;;;;;;15.13;13.73;;;;;;;;;;5034460;28;20065;-58
2023/09/11 12:33:27;;;;;;;15.68;14.35;;;;;;;;;;5016467;28;20032;-58
2023/09/11 12:35:53;;;;;;;15.23;13.73;;;;;;;;;;5034434;28;20460;-58
2023/09/11 12:38:19;;;;;;;17.17;15.68;;;;;;;;;;5034478;28;20047;-58
2023/09/11 12:40:48;;;;;;;15.65;14.25;;;;;;;;;;5034295;28;20091;-58
2023/09/11 12:43:14;;;;;;;16.67;15.23;;;;;;;;;;5034251;28;20033;-58
2023/09/11 12:45:40;;;;;;;17.98;16.35;;;;;;;;;;5034284;28;20113;-58
2023/09/11 12:48:06;;;;;;;16.52;15.18;;;;;;;;;;5034087;28;20021;-58
2023/09/11 12:50:32;;;;;;;17.58;15.90;;;;;;;;;;5034164;28;20025;-58
2023/09/11 12:52:59;;;;;;;17.98;16.17;;;;;;;;;;5034355;28;20043;-58
2023/09/11 12:55:25;;;;;;;15.52;14.25;;;;;;;;;;5034139;28;20048;-58
2023/09/11 12:57:52;;;;;;;17.20;15.55;;;;;;;;;;5034086;28;20029;-59
2023/09/11 13:00:18;;;;;;;15.93;14.75;;;;;;;;;;5029120;28;20014;-59
2023/09/11 13:02:44;;;;;;;16.05;14.50;;;;;;;;;;5014548;28;20052;-58
2023/09/11 13:05:10;;;;;;;15.82;14.63;;;;;;;;;;5027182;28;20032;-59
2023/09/11 13:07:36;;;;;;;16.05;14.63;;;;;;;;;;5032202;28;20029;-58
2023/09/11 13:10:03;;;;;;;18.42;17.02;;;;;;;;;;5028531;28;20440;-59
2023/09/11 13:12:29;;;;;;;18.35;17.05;;;;;;;;;;5029652;28;20025;-58
2023/09/11 13:14:56;;;;;;;14.73;13.43;;;;;;;;;;5033712;28;20470;-58
2023/09/11 13:17:22;;;;;;;16.73;15.32;;;;;;;;;;5033728;28;20029;-58
2023/09/11 13:19:48;;;;;;;16.20;14.90;;;;;;;;;;5033911;28;20116;-59
2023/09/11 13:22:15;;;;;;;16.35;15.00;;;;;;;;;;5033542;28;20069;-58
2023/09/11 13:24:41;;;;;;;17.10;15.70;;;;;;;;;;5015895;28;20037;-59
2023/09/11 13:27:07;;;;;;;17.55;16.15;;;;;;;;;;5033541;28;20024;-58
2023/09/11 13:29:33;;;;;;;16.75;15.43;;;;;;;;;;5015655;28;20029;-59
2023/09/11 13:31:59;;;;;;;14.65;13.55;;;;;;;;;;5033290;28;20505;-59
2023/09/11 13:34:25;;;;;;;17.38;16.00;;;;;;;;;;5033910;28;20021;-59
2023/09/11 13:36:53;;;;;;;16.13;14.75;;;;;;;;;;5033677;28;20041;-58
2023/09/11 13:39:22;;;;;;;15.68;14.48;;;;;;;;;;5033348;28;20014;-58
2023/09/11 13:41:48;;;;;;;18.80;17.15;;;;;;;;;;5033167;28;20024;-58
2023/09/11 13:44:14;;;;;;;17.20;15.80;;;;;;;;;;5015459;28;20109;-58
2023/09/11 13:46:40;;;;;;;16.85;15.57;;;;;;;;;;5033287;28;20038;-58
2023/09/11 13:49:06;;;;;;;17.42;15.98;;;;;;;;;;5033352;28;20375;-58
2023/09/11 13:51:32;;;;;;;15.75;14.55;;;;;;;;;;5033094;28;20087;-59
2023/09/11 13:53:58;;;;;;;16.40;15.23;;;;;;;;;;5033199;28;20112;-58
2023/09/11 13:56:24;;;;;;;15.55;14.50;;;;;;;;;;5015202;28;20455;-59
2023/09/11 13:58:50;;;;;;;15.73;14.38;;;;;;;;;;5032932;28;20100;-59
2023/09/11 14:01:16;;;;;;;15.52;14.00;;;;;;;;;;5015036;28;20030;-59
2023/09/11 14:03:42;;;;;;;16.20;14.90;;;;;;;;;;5032895;28;20111;-59
2023/09/11 14:06:08;;;;;;;16.35;14.93;;;;;;;;;;5032636;28;20021;-59
2023/09/11 14:08:34;;;;;;;13.95;12.85;;;;;;;;;;5033125;28;20017;-58
2023/09/11 14:11:00;;;;;;;14.75;13.48;;;;;;;;;;5030133;28;20420;-58
2023/09/11 14:13:26;;;;;;;13.98;12.77;;;;;;;;;;5032210;28;20026;-58
2023/09/11 14:15:53;;;;;;;13.93;12.63;;;;;;;;;;5032642;28;20155;-58
2023/09/11 14:18:20;;;;;;;13.57;12.43;;;;;;;;;;5032210;28;20104;-58